createdAt,value
2017-11-13T10:13:56.200Z,56.31
2017-11-13T10:14:58.621Z,55.45
2017-11-13T10:16:03.404Z,55.57
2017-11-13T10:17:06.991Z,55.00
2017-11-13T10:18:09.376Z,54.23
2017-11-13T10:19:12.994Z,54.04
2017-11-13T10:20:15.334Z,53.97
2017-11-13T10:21:19.434Z,53.70
2017-11-13T10:22:23.471Z,52.36
2017-11-13T10:23:27.093Z,51.88
2017-11-13T10:24:29.298Z,51.04
2017-11-13T10:25:33.027Z,50.95
2017-11-13T10:26:37.302Z,50.27
2017-11-13T10:27:41.222Z,50.10
2017-11-13T10:28:46.937Z,49.91
2017-11-13T10:29:51.108Z,49.33
2017-11-13T10:30:57.495Z,49.33
2017-11-13T10:32:02.795Z,48.47
2017-11-13T10:33:07.280Z,48.85
2017-11-13T10:34:11.391Z,48.11
2017-11-13T10:35:15.087Z,48.28
2017-11-13T10:36:17.753Z,48.47
2017-11-13T10:37:19.574Z,49.10
2017-11-13T10:38:21.180Z,50.05
2017-11-13T10:39:25.690Z,49.99
2017-11-13T10:40:30.312Z,49.41
2017-11-13T10:42:13.916Z,50.15
2017-11-13T10:43:17.104Z,49.96
2017-11-13T10:44:19.586Z,50.25
2017-11-13T10:45:22.947Z,50.23
2017-11-13T10:46:26.733Z,51.83
2017-11-13T10:47:30.210Z,52.31
2017-11-13T10:48:34.070Z,53.15
2017-11-13T10:49:38.126Z,53.72
2017-11-13T10:50:41.646Z,54.37
2017-11-13T10:51:45.370Z,55.21
2017-11-13T10:52:59.029Z,56.16
2017-11-13T10:54:01.169Z,56.99
2017-11-13T10:55:06.633Z,58.81
2017-11-13T12:34:57.186Z,82.75
2017-11-13T12:36:40.384Z,83.41
2017-11-13T12:37:44.045Z,83.61
2017-11-13T12:38:47.053Z,83.70
2017-11-13T12:39:51.687Z,84.04
2017-11-13T12:40:53.030Z,84.42
2017-11-13T12:41:57.498Z,85.18
2017-11-13T12:43:01.893Z,84.99
2017-11-13T12:44:06.007Z,85.08
2017-11-13T12:45:09.774Z,85.66
2017-11-13T12:46:13.664Z,85.66
2017-11-13T12:47:17.997Z,85.94
2017-11-13T12:48:20.728Z,86.04
2017-11-13T12:49:22.866Z,86.61
2017-11-13T12:50:25.246Z,85.66
2017-11-13T12:51:29.333Z,86.38
2017-11-13T12:52:33.858Z,86.28
2017-11-13T12:53:49.176Z,87.13
2017-11-13T12:54:53.764Z,87.04
2017-11-13T12:55:57.510Z,85.80
